Time;durP1;ratioP1;P1;durP2;ratioP2;P2;SDS_P1;SDS_P2;PMS_P1;PMS_P2;Temp;Humidity;BMP_temperature;BMP_pressure;BME280_temperature;BME280_humidity;BME280_pressure;Samples;Min_cycle;Max_cycle;Signal;HPM_P1;HPM_P2
2023/09/09 00:00:07;;;;;;;14.57;8.93;;;18.40;99.90;;;;;;5100794;28;20463;-93
2023/09/09 00:02:33;;;;;;;14.18;8.77;;;18.40;99.90;;;;;;5101404;28;20040;-93
2023/09/09 00:05:00;;;;;;;12.95;8.30;;;18.40;99.90;;;;;;5083756;28;20403;-92
2023/09/09 00:07:27;;;;;;;12.07;8.48;;;18.40;99.90;;;;;;5084313;28;20035;-93
2023/09/09 00:09:53;;;;;;;12.90;9.20;;;18.40;99.90;;;;;;5083694;28;20503;-93
2023/09/09 00:12:20;;;;;;;14.65;9.65;;;18.40;99.90;;;;;;5083763;28;20062;-93
2023/09/09 00:14:47;;;;;;;15.52;9.35;;;18.40;99.90;;;;;;5084325;28;20084;-93
2023/09/09 00:17:13;;;;;;;17.98;9.90;;;18.40;99.90;;;;;;5083739;28;20040;-93
2023/09/09 00:19:40;;;;;;;11.98;9.05;;;18.30;99.90;;;;;;5084216;28;20036;-92
2023/09/09 00:22:07;;;;;;;14.32;9.50;;;18.30;99.90;;;;;;5083089;28;20081;-93
2023/09/09 00:24:33;;;;;;;15.32;9.55;;;18.30;99.90;;;;;;5084010;28;20104;-92
2023/09/09 00:27:00;;;;;;;14.00;9.50;;;18.30;99.90;;;;;;5117263;28;20039;-92
2023/09/09 00:29:27;;;;;;;13.90;9.93;;;18.30;99.90;;;;;;5116975;28;20036;-93
2023/09/09 00:31:54;;;;;;;15.02;10.18;;;18.20;99.90;;;;;;5083672;28;20036;-93
2023/09/09 00:34:21;;;;;;;15.93;9.75;;;18.20;99.90;;;;;;5100412;28;20184;-93
2023/09/09 00:36:48;;;;;;;14.18;9.63;;;18.20;99.90;;;;;;5084209;28;20039;-93
2023/09/09 00:39:14;;;;;;;15.27;10.88;;;18.20;99.90;;;;;;5116359;28;20086;-93
2023/09/09 00:41:41;;;;;;;18.08;10.25;;;18.20;99.90;;;;;;5084012;28;20050;-94
2023/09/09 00:44:09;;;;;;;13.40;10.60;;;18.20;99.90;;;;;;5083190;28;20051;-92
2023/09/09 00:46:36;;;;;;;13.82;10.30;;;18.20;99.90;;;;;;5100861;28;20135;-93
2023/09/09 00:49:03;;;;;;;12.85;10.27;;;18.20;99.90;;;;;;5083548;28;20131;-92
2023/09/09 00:51:31;;;;;;;17.92;10.88;;;18.20;99.90;;;;;;5083712;28;20089;-94
2023/09/09 00:53:58;;;;;;;17.02;10.55;;;18.20;99.90;;;;;;5099993;28;20180;-91
2023/09/09 00:56:25;;;;;;;14.35;10.65;;;18.20;99.90;;;;;;5099708;28;20119;-92
2023/09/09 00:58:52;;;;;;;14.23;10.70;;;18.10;99.90;;;;;;5133671;28;20510;-93
2023/09/09 01:01:18;;;;;;;15.48;10.18;;;18.20;99.90;;;;;;5082766;28;20068;-92
2023/09/09 01:03:45;;;;;;;14.50;10.82;;;18.20;99.90;;;;;;5083196;28;20035;-93
2023/09/09 01:06:12;;;;;;;14.88;10.48;;;18.20;99.90;;;;;;5116230;28;20134;-93
2023/09/09 01:08:39;;;;;;;14.95;10.77;;;18.20;99.90;;;;;;5099781;28;20138;-89
2023/09/09 01:11:05;;;;;;;16.83;12.02;;;18.10;99.90;;;;;;5099842;28;20040;-93
2023/09/09 01:13:32;;;;;;;17.05;11.65;;;18.10;99.90;;;;;;5099177;28;20040;-93
2023/09/09 01:15:59;;;;;;;16.90;11.93;;;18.10;99.90;;;;;;5083027;28;20038;-93
2023/09/09 01:18:28;;;;;;;16.95;12.40;;;18.10;99.90;;;;;;5116372;28;20562;-92
2023/09/09 01:21:09;;;;;;;17.92;11.30;;;18.10;99.90;;;;;;5116078;28;20059;-94
2023/09/09 01:23:37;;;;;;;15.85;11.75;;;18.10;99.90;;;;;;5132985;28;20547;-93
2023/09/09 01:26:04;;;;;;;15.73;11.50;;;18.00;99.90;;;;;;5099641;28;20201;-93
2023/09/09 01:28:31;;;;;;;17.48;11.73;;;18.00;99.90;;;;;;5099310;28;20130;-93
2023/09/09 01:30:58;;;;;;;16.55;12.02;;;18.00;99.90;;;;;;5082489;28;20032;-93
2023/09/09 01:33:25;;;;;;;16.27;12.10;;;18.00;99.90;;;;;;5098858;28;20039;-93
2023/09/09 01:35:51;;;;;;;17.17;11.63;;;18.00;99.90;;;;;;5099272;28;20196;-94
2023/09/09 01:38:18;;;;;;;15.75;11.27;;;17.90;99.90;;;;;;5082939;28;20039;-92
2023/09/09 01:40:45;;;;;;;15.95;11.35;;;17.90;99.90;;;;;;5083049;28;20126;-94
2023/09/09 01:43:12;;;;;;;17.10;10.60;;;17.90;99.90;;;;;;5098713;28;20031;-93
2023/09/09 01:45:38;;;;;;;16.85;11.10;;;17.90;99.90;;;;;;5098672;28;20071;-92
2023/09/09 01:48:05;;;;;;;16.63;11.98;;;17.90;99.90;;;;;;5082268;28;20429;-93
2023/09/09 01:50:32;;;;;;;16.98;11.85;;;17.90;99.90;;;;;;5082493;28;20080;-93
2023/09/09 01:53:00;;;;;;;17.55;11.93;;;17.80;99.90;;;;;;5115397;28;20031;-93
2023/09/09 01:55:27;;;;;;;16.00;11.35;;;17.80;99.90;;;;;;5115270;28;20126;-93
2023/09/09 01:57:54;;;;;;;18.05;11.98;;;17.80;99.90;;;;;;5082336;28;20075;-93
2023/09/09 02:00:20;;;;;;;16.05;11.82;;;17.80;99.90;;;;;;5098496;28;20512;-93
2023/09/09 02:02:47;;;;;;;19.38;12.20;;;17.80;99.90;;;;;;5081784;28;20039;-93
2023/09/09 02:05:14;;;;;;;18.73;12.20;;;17.80;99.90;;;;;;5098346;28;20044;-93
2023/09/09 02:07:41;;;;;;;18.55;12.23;;;17.70;99.90;;;;;;5082056;28;20377;-93
2023/09/09 02:10:08;;;;;;;16.73;12.32;;;17.80;99.90;;;;;;5115058;28;20043;-92
2023/09/09 02:12:34;;;;;;;16.90;12.70;;;17.70;99.90;;;;;;5098063;28;20053;-91
2023/09/09 02:15:01;;;;;;;16.00;13.10;;;17.70;99.90;;;;;;5081695;28;20035;-92
2023/09/09 02:17:28;;;;;;;17.77;12.50;;;17.70;99.90;;;;;;5114521;28;20067;-93
2023/09/09 02:19:56;;;;;;;18.65;13.85;;;17.70;99.90;;;;;;5114737;28;20039;-92
2023/09/09 02:22:24;;;;;;;17.75;12.30;;;17.70;99.90;;;;;;5114905;28;20080;-92
2023/09/09 02:24:55;;;;;;;17.00;12.80;;;17.70;99.90;;;;;;5114112;28;20069;-92
2023/09/09 02:27:23;;;;;;;17.80;12.48;;;17.70;99.90;;;;;;5114430;28;20488;-93
2023/09/09 02:29:50;;;;;;;21.77;14.10;;;17.70;99.90;;;;;;5081607;28;20074;-93
2023/09/09 02:32:17;;;;;;;16.40;12.52;;;17.60;99.90;;;;;;5114970;28;20035;-93
2023/09/09 02:34:44;;;;;;;19.33;13.63;;;17.70;99.90;;;;;;5097296;28;20035;-91
2023/09/09 02:37:22;;;;;;;17.83;13.65;;;17.60;99.90;;;;;;5081206;28;20036;-93
2023/09/09 02:39:50;;;;;;;18.52;13.32;;;17.60;99.90;;;;;;5131482;28;20069;-93
2023/09/09 02:42:19;;;;;;;20.42;13.88;;;17.60;99.90;;;;;;5131206;28;20047;-93
2023/09/09 02:44:46;;;;;;;18.10;13.00;;;17.60;99.90;;;;;;5114199;28;20044;-93
2023/09/09 02:47:13;;;;;;;19.10;13.20;;;17.60;99.90;;;;;;5080974;28;20054;-93
2023/09/09 02:49:40;;;;;;;23.33;14.57;;;17.60;99.90;;;;;;5114119;28;20036;-91
2023/09/09 02:52:07;;;;;;;20.90;14.93;;;17.60;99.90;;;;;;5114739;28;20040;-93
2023/09/09 02:54:35;;;;;;;23.08;14.93;;;17.60;99.90;;;;;;5114052;28;20032;-92
2023/09/09 02:57:03;;;;;;;21.13;15.43;;;17.60;99.90;;;;;;5131751;28;20040;-93
2023/09/09 02:59:33;;;;;;;19.42;14.57;;;17.60;99.90;;;;;;5114636;28;20075;-93
2023/09/09 03:02:00;;;;;;;18.45;14.20;;;17.60;99.90;;;;;;5114478;28;20479;-93
2023/09/09 03:04:27;;;;;;;20.42;15.70;;;17.50;99.90;;;;;;5114198;28;20057;-93
2023/09/09 03:06:54;;;;;;;25.65;15.55;;;17.50;99.90;;;;;;5097723;28;20039;-93
2023/09/09 03:09:21;;;;;;;21.60;15.27;;;17.50;99.90;;;;;;5114380;28;20036;-93
2023/09/09 03:11:48;;;;;;;20.67;15.20;;;17.50;99.90;;;;;;5097274;28;20514;-93
2023/09/09 03:14:14;;;;;;;20.60;14.90;;;17.50;99.90;;;;;;5097888;28;20035;-93
2023/09/09 03:16:41;;;;;;;23.92;15.50;;;17.50;99.90;;;;;;5096958;28;20039;-92
2023/09/09 03:19:08;;;;;;;23.38;15.98;;;17.50;99.90;;;;;;5109736;28;20114;-93
2023/09/09 03:21:34;;;;;;;21.73;15.90;;;17.50;99.90;;;;;;5080929;28;20127;-93
2023/09/09 03:24:01;;;;;;;25.00;15.77;;;17.40;99.90;;;;;;5068079;28;20036;-92
2023/09/09 03:26:28;;;;;;;20.40;15.00;;;17.40;99.90;;;;;;5089671;28;20040;-88
2023/09/09 03:28:55;;;;;;;25.05;16.75;;;17.40;99.90;;;;;;5078327;28;20095;-93
2023/09/09 03:31:21;;;;;;;24.58;17.63;;;17.40;99.90;;;;;;5093619;28;20032;-92
2023/09/09 03:33:48;;;;;;;25.17;17.20;;;17.40;99.90;;;;;;5069125;28;20044;-93
2023/09/09 03:36:14;;;;;;;26.15;17.63;;;17.40;99.90;;;;;;5078557;28;20047;-93
2023/09/09 03:38:41;;;;;;;27.00;16.77;;;17.40;99.90;;;;;;5093328;28;20040;-93
2023/09/09 03:41:08;;;;;;;22.92;16.50;;;17.40;99.90;;;;;;5077000;28;20044;-92
2023/09/09 03:43:36;;;;;;;22.38;15.88;;;17.40;99.90;;;;;;5096600;28;20036;-93
2023/09/09 03:46:03;;;;;;;24.55;17.48;;;17.40;99.90;;;;;;5113813;28;20054;-92
2023/09/09 03:48:30;;;;;;;22.90;16.73;;;17.40;99.90;;;;;;5114274;28;20491;-92
2023/09/09 03:51:01;;;;;;;21.85;15.88;;;17.40;99.90;;;;;;5113727;28;20043;-93
2023/09/09 03:53:28;;;;;;;22.13;16.83;;;17.40;99.90;;;;;;5130813;28;20138;-92
2023/09/09 03:55:54;;;;;;;23.17;17.15;;;17.40;99.90;;;;;;5097012;28;20047;-93
2023/09/09 03:58:23;;;;;;;24.20;18.17;;;17.40;99.90;;;;;;5097587;28;20028;-93
2023/09/09 04:01:02;;;;;;;22.92;17.42;;;17.40;99.90;;;;;;5097071;28;20039;-92
2023/09/09 04:03:30;;;;;;;23.65;16.48;;;17.40;99.90;;;;;;5114065;28;20073;-93
2023/09/09 04:05:56;;;;;;;25.42;17.95;;;17.40;99.90;;;;;;5077174;28;20032;-93
2023/09/09 04:08:23;;;;;;;23.40;17.23;;;17.40;99.90;;;;;;5081164;28;20085;-94
2023/09/09 04:10:50;;;;;;;26.35;17.75;;;17.30;99.90;;;;;;5080744;28;20040;-92
2023/09/09 04:13:17;;;;;;;24.02;17.52;;;17.30;99.90;;;;;;5064201;28;20182;-93
2023/09/09 04:15:43;;;;;;;23.85;15.95;;;17.30;99.90;;;;;;5092709;28;20040;-93
2023/09/09 04:18:12;;;;;;;23.48;17.15;;;17.30;99.90;;;;;;5100497;28;20042;-92
2023/09/09 04:20:39;;;;;;;23.77;16.75;;;17.30;99.90;;;;;;5100479;28;20055;-92
2023/09/09 04:23:06;;;;;;;24.48;16.48;;;17.30;99.90;;;;;;5083761;28;20047;-92
2023/09/09 04:25:32;;;;;;;21.25;16.08;;;17.30;99.90;;;;;;5100585;28;20047;-93
2023/09/09 04:27:59;;;;;;;21.88;16.88;;;17.20;99.90;;;;;;5083224;28;20042;-92
2023/09/09 04:30:26;;;;;;;21.50;15.95;;;17.20;99.90;;;;;;5083631;28;20036;-93
2023/09/09 04:32:52;;;;;;;25.90;17.13;;;17.20;99.90;;;;;;5082866;28;20044;-82
2023/09/09 04:35:19;;;;;;;32.00;17.83;;;17.20;99.90;;;;;;5082408;28;20095;-81
2023/09/09 04:37:46;;;;;;;24.42;17.58;;;17.20;99.90;;;;;;5081605;28;20047;-82
2023/09/09 04:40:13;;;;;;;24.77;18.67;;;17.10;99.90;;;;;;5099063;28;20128;-81
2023/09/09 04:42:40;;;;;;;26.38;18.48;;;17.20;99.90;;;;;;5081519;28;20194;-82
2023/09/09 04:45:07;;;;;;;24.30;17.60;;;17.20;99.90;;;;;;5098396;28;20038;-81
2023/09/09 04:47:34;;;;;;;25.60;18.60;;;17.20;99.90;;;;;;5081686;28;20504;-81
2023/09/09 04:50:01;;;;;;;25.50;18.00;;;17.20;99.90;;;;;;5098074;28;20126;-82
2023/09/09 04:52:28;;;;;;;29.13;18.73;;;17.20;99.90;;;;;;5098496;28;20039;-81
2023/09/09 04:54:55;;;;;;;25.20;17.33;;;17.20;99.90;;;;;;5098011;28;20097;-82
2023/09/09 04:57:21;;;;;;;26.05;17.88;;;17.10;99.90;;;;;;5098295;28;20031;-82
2023/09/09 04:59:48;;;;;;;25.02;17.13;;;17.10;99.90;;;;;;5098196;28;20062;-82
2023/09/09 05:02:15;;;;;;;27.33;17.27;;;17.10;99.90;;;;;;5081902;28;20097;-82
2023/09/09 05:04:42;;;;;;;26.73;18.27;;;17.10;99.90;;;;;;5098222;28;20040;-82
2023/09/09 05:07:09;;;;;;;23.13;17.80;;;17.10;99.90;;;;;;5081841;28;20487;-81
2023/09/09 05:09:36;;;;;;;24.95;18.02;;;17.10;99.90;;;;;;5098068;28;20035;-82
2023/09/09 05:12:03;;;;;;;24.63;18.67;;;17.10;99.90;;;;;;5080988;28;20035;-82
2023/09/09 05:14:30;;;;;;;26.27;18.60;;;17.10;99.90;;;;;;5081595;28;20076;-82
2023/09/09 05:16:56;;;;;;;27.45;18.58;;;17.20;99.90;;;;;;5097650;28;20118;-82
2023/09/09 05:19:23;;;;;;;28.23;18.50;;;17.10;99.90;;;;;;5079930;28;20046;-81
2023/09/09 05:21:50;;;;;;;25.83;18.13;;;17.10;99.90;;;;;;5081027;28;20510;-82
2023/09/09 05:24:16;;;;;;;23.95;17.60;;;17.10;99.90;;;;;;5114853;28;20055;-81
2023/09/09 05:26:43;;;;;;;26.38;18.25;;;17.10;99.90;;;;;;5098044;28;20062;-82
2023/09/09 05:29:10;;;;;;;24.73;17.60;;;17.10;99.90;;;;;;5080820;28;20027;-81
2023/09/09 05:31:36;;;;;;;25.70;18.48;;;17.10;99.90;;;;;;5081402;28;20034;-82
2023/09/09 05:34:03;;;;;;;27.63;19.33;;;17.10;99.90;;;;;;5080846;28;20039;-82
2023/09/09 05:36:30;;;;;;;27.05;19.00;;;17.20;99.90;;;;;;5081276;28;20415;-82
2023/09/09 05:38:59;;;;;;;25.75;18.50;;;17.20;99.90;;;;;;5080786;28;20109;-81
2023/09/09 05:41:30;;;;;;;26.52;18.15;;;17.20;99.90;;;;;;5097702;28;20051;-82
2023/09/09 05:43:56;;;;;;;24.83;18.55;;;17.20;99.90;;;;;;5097369;28;20063;-82
2023/09/09 05:46:23;;;;;;;25.85;19.08;;;17.30;99.90;;;;;;5097114;28;20039;-82
2023/09/09 05:48:50;;;;;;;27.67;19.02;;;17.30;99.90;;;;;;5080454;28;20492;-92
2023/09/09 05:51:18;;;;;;;27.98;20.42;;;17.30;99.90;;;;;;5098674;28;20047;-93
2023/09/09 05:53:47;;;;;;;29.90;20.02;;;17.30;99.90;;;;;;5115611;28;20074;-93
2023/09/09 05:56:13;;;;;;;26.65;19.63;;;17.40;99.90;;;;;;5099047;28;20039;-93
2023/09/09 05:58:40;;;;;;;26.13;19.30;;;17.40;99.90;;;;;;5098670;28;20050;-92
2023/09/09 06:01:07;;;;;;;28.05;20.05;;;17.50;99.90;;;;;;5098243;28;20035;-93
2023/09/09 06:03:35;;;;;;;25.67;19.33;;;17.50;99.90;;;;;;5098629;28;20050;-93
2023/09/09 06:06:03;;;;;;;29.33;20.33;;;17.60;99.90;;;;;;5098527;28;20067;-93
2023/09/09 06:08:29;;;;;;;27.33;19.80;;;17.60;99.90;;;;;;5097994;28;20048;-91
2023/09/09 06:10:56;;;;;;;29.27;20.25;;;17.70;99.90;;;;;;5081466;28;20049;-93
2023/09/09 06:13:23;;;;;;;31.10;20.38;;;17.70;99.90;;;;;;5097988;28;20047;-94
2023/09/09 06:15:49;;;;;;;27.27;20.95;;;17.70;99.90;;;;;;5081980;28;20081;-91
2023/09/09 06:18:16;;;;;;;31.17;21.40;;;17.80;99.90;;;;;;5098326;28;20040;-92
2023/09/09 06:20:50;;;;;;;31.23;19.75;;;17.80;99.90;;;;;;5131374;28;20085;-93
2023/09/09 06:23:16;;;;;;;30.00;21.27;;;17.90;99.90;;;;;;5114666;28;20035;-92
2023/09/09 06:25:44;;;;;;;29.55;20.70;;;17.90;99.90;;;;;;5081311;28;20044;-92
2023/09/09 06:28:11;;;;;;;28.02;20.90;;;18.00;99.90;;;;;;5097681;28;20089;-91
2023/09/09 06:30:43;;;;;;;33.33;22.15;;;18.10;99.90;;;;;;5081176;28;20032;-91
2023/09/09 06:33:09;;;;;;;34.75;22.15;;;18.20;99.90;;;;;;5113781;28;20088;-92
2023/09/09 06:35:37;;;;;;;29.95;21.30;;;18.20;99.90;;;;;;5097838;28;20487;-92
2023/09/09 06:38:03;;;;;;;31.73;21.50;;;18.30;99.90;;;;;;5097787;28;20092;-92
2023/09/09 06:40:33;;;;;;;31.50;21.60;;;18.30;99.90;;;;;;5081069;28;20491;-89
2023/09/09 06:42:59;;;;;;;30.83;20.88;;;18.40;99.90;;;;;;5094420;28;20036;-89
2023/09/09 06:45:26;;;;;;;30.50;21.52;;;18.50;99.90;;;;;;5095762;28;20392;-90
2023/09/09 06:47:53;;;;;;;29.38;21.13;;;18.60;99.90;;;;;;5087314;28;20051;-89
2023/09/09 06:50:20;;;;;;;31.17;22.00;;;18.70;99.90;;;;;;5080778;28;20136;-90
2023/09/09 06:52:46;;;;;;;28.88;21.27;;;18.70;99.90;;;;;;5097997;28;20042;-90
2023/09/09 06:55:13;;;;;;;32.83;22.50;;;18.80;99.90;;;;;;5061507;28;20085;-91
2023/09/09 06:57:40;;;;;;;33.45;21.40;;;18.90;99.90;;;;;;5061722;28;20451;-92
2023/09/09 07:00:08;;;;;;;28.27;20.85;;;19.00;99.90;;;;;;5076721;28;20039;-92
2023/09/09 07:02:35;;;;;;;28.10;21.92;;;19.10;99.90;;;;;;5077663;28;20131;-92
2023/09/09 07:05:03;;;;;;;32.28;21.70;;;19.20;99.90;;;;;;5076919;28;20047;-91
2023/09/09 07:07:29;;;;;;;27.98;20.77;;;19.30;99.90;;;;;;5077466;28;20051;-91
2023/09/09 07:09:56;;;;;;;28.55;19.67;;;19.30;99.90;;;;;;5060470;28;20403;-91
2023/09/09 07:12:23;;;;;;;24.35;19.52;;;19.40;99.90;;;;;;5093812;28;20578;-91
2023/09/09 07:14:49;;;;;;;26.80;19.73;;;19.50;99.90;;;;;;5081071;28;20489;-90
2023/09/09 07:17:16;;;;;;;26.77;20.30;;;19.60;99.90;;;;;;5093272;28;20485;-91
2023/09/09 07:19:43;;;;;;;25.45;18.30;;;19.70;99.90;;;;;;5093766;28;20044;-91
2023/09/09 07:22:10;;;;;;;24.70;18.75;;;19.90;99.90;;;;;;5076564;28;20056;-90
2023/09/09 07:24:36;;;;;;;26.52;19.38;;;20.00;99.90;;;;;;5079308;28;20125;-88
2023/09/09 07:27:03;;;;;;;24.10;17.13;;;20.10;99.90;;;;;;5096815;28;20097;-88
2023/09/09 07:29:30;;;;;;;27.85;19.05;;;20.20;99.90;;;;;;5097283;28;20043;-89
2023/09/09 07:31:57;;;;;;;26.33;18.25;;;20.40;99.90;;;;;;5114104;28;20552;-94
2023/09/09 07:34:24;;;;;;;26.02;17.85;;;20.50;99.90;;;;;;5080834;28;20337;-92
2023/09/09 07:36:51;;;;;;;25.30;18.38;;;20.60;99.90;;;;;;5097952;28;20039;-94
2023/09/09 07:39:18;;;;;;;22.88;17.90;;;20.70;99.90;;;;;;5080972;28;20039;-94
2023/09/09 07:41:45;;;;;;;23.30;16.92;;;20.90;99.90;;;;;;5098991;28;20058;-94
2023/09/09 07:44:11;;;;;;;21.13;16.58;;;21.00;99.90;;;;;;5100964;28;20039;-94
2023/09/09 07:46:38;;;;;;;23.55;16.90;;;21.10;99.90;;;;;;5084522;28;20043;-94
2023/09/09 07:49:05;;;;;;;22.50;16.10;;;21.20;99.90;;;;;;5101622;28;20044;-94
2023/09/09 07:51:31;;;;;;;23.20;16.60;;;21.30;99.90;;;;;;5100740;28;20039;-94
2023/09/09 07:53:58;;;;;;;21.05;16.45;;;21.50;99.90;;;;;;5084824;28;20047;-94
2023/09/09 07:56:25;;;;;;;22.58;16.63;;;21.60;99.90;;;;;;5100711;28;20071;-93
2023/09/09 07:58:51;;;;;;;23.00;16.77;;;21.70;99.90;;;;;;5101001;28;20043;-94
2023/09/09 08:01:18;;;;;;;22.83;17.13;;;21.80;99.90;;;;;;5117739;28;20066;-93
2023/09/09 08:03:45;;;;;;;20.95;15.20;;;21.90;99.90;;;;;;5101159;28;20082;-93
2023/09/09 08:06:12;;;;;;;23.10;16.33;;;22.00;99.90;;;;;;5100592;28;20130;-94
2023/09/09 08:08:38;;;;;;;21.95;16.30;;;22.10;99.90;;;;;;5117067;28;20040;-90
2023/09/09 08:11:05;;;;;;;27.08;16.20;;;22.20;99.90;;;;;;5100668;28;20032;-91
2023/09/09 08:13:32;;;;;;;28.90;16.80;;;22.30;99.90;;;;;;5099713;28;20539;-92
2023/09/09 08:15:59;;;;;;;21.20;16.17;;;22.40;99.90;;;;;;5100825;28;20036;-94
2023/09/09 08:18:26;;;;;;;23.33;17.67;;;22.50;99.90;;;;;;5083541;28;20094;-92
2023/09/09 08:20:53;;;;;;;21.50;16.33;;;22.60;99.90;;;;;;5116960;28;20184;-90
2023/09/09 08:23:22;;;;;;;21.60;16.33;;;22.70;99.90;;;;;;5082835;28;20411;-89
2023/09/09 08:25:49;;;;;;;22.70;17.25;;;22.80;99.90;;;;;;5117012;28;20031;-89
2023/09/09 08:28:15;;;;;;;25.63;16.63;;;22.90;99.90;;;;;;5083336;28;20038;-91
2023/09/09 08:30:42;;;;;;;20.50;15.57;;;23.00;99.90;;;;;;5083470;28;20040;-91
2023/09/09 08:33:09;;;;;;;23.83;15.93;;;23.10;99.90;;;;;;5083332;28;20492;-90
2023/09/09 08:35:35;;;;;;;20.35;15.15;;;23.20;99.90;;;;;;5083425;28;20069;-90
2023/09/09 08:38:04;;;;;;;23.52;15.02;;;23.40;99.90;;;;;;5083412;28;20050;-90
2023/09/09 08:40:35;;;;;;;21.25;15.70;;;23.40;99.90;;;;;;5100224;28;20051;-90
2023/09/09 08:43:18;;;;;;;20.73;15.60;;;23.50;99.90;;;;;;5116160;28;20205;-91
2023/09/09 08:46:25;;;;;;;19.20;15.38;;;23.60;99.90;;;;;;5116085;28;20047;-90
2023/09/09 08:48:52;;;;;;;24.70;16.73;;;23.70;99.90;;;;;;5115517;28;20529;-91
2023/09/09 08:51:30;;;;;;;22.48;15.93;;;23.90;99.90;;;;;;5082595;28;20042;-91
2023/09/09 08:53:57;;;;;;;21.25;16.40;;;24.00;99.90;;;;;;5116206;28;20096;-90
2023/09/09 08:56:25;;;;;;;20.48;14.73;;;24.00;99.90;;;;;;5116279;28;20685;-89
2023/09/09 08:58:52;;;;;;;22.88;15.25;;;24.20;99.90;;;;;;5099558;28;20122;-91
2023/09/09 09:01:21;;;;;;;20.13;15.80;;;24.20;99.90;;;;;;5099180;28;20083;-89
2023/09/09 09:03:50;;;;;;;21.48;15.35;;;24.40;99.90;;;;;;5116108;28;20035;-90
2023/09/09 09:06:17;;;;;;;20.98;14.90;;;24.60;99.90;;;;;;5116086;28;20039;-90
2023/09/09 09:08:44;;;;;;;18.73;14.00;;;24.70;99.90;;;;;;5098854;28;20051;-91
2023/09/09 09:11:12;;;;;;;26.75;13.88;;;24.80;99.90;;;;;;5098951;28;20403;-90
2023/09/09 09:13:39;;;;;;;18.85;13.60;;;24.90;99.90;;;;;;5115743;28;20073;-91
2023/09/09 09:16:06;;;;;;;19.35;13.18;;;25.00;99.90;;;;;;5115965;28;20036;-90
2023/09/09 09:18:35;;;;;;;18.40;14.45;;;25.20;99.90;;;;;;5099057;28;20035;-91
2023/09/09 09:21:09;;;;;;;19.40;14.82;;;25.20;99.90;;;;;;5115447;28;20039;-90
2023/09/09 09:23:46;;;;;;;16.08;12.38;;;25.30;99.90;;;;;;5082326;28;20518;-91
2023/09/09 09:26:26;;;;;;;18.33;12.50;;;25.40;99.90;;;;;;5082441;28;20395;-91
2023/09/09 09:28:53;;;;;;;20.60;13.77;;;25.50;99.90;;;;;;5115393;28;20070;-89
2023/09/09 09:31:21;;;;;;;15.75;12.15;;;25.60;99.90;;;;;;5098837;28;20031;-89
2023/09/09 09:33:50;;;;;;;18.27;12.85;;;25.70;99.90;;;;;;5098538;28;20073;-90
2023/09/09 09:36:21;;;;;;;16.02;12.05;;;25.80;99.90;;;;;;5098817;28;20453;-91
2023/09/09 09:38:49;;;;;;;18.65;13.98;;;25.90;99.90;;;;;;5098640;28;20040;-91
2023/09/09 09:41:20;;;;;;;21.75;13.30;;;26.00;99.90;;;;;;5099397;28;20071;-91
2023/09/09 09:43:48;;;;;;;18.67;14.93;;;26.00;99.90;;;;;;5096777;28;20048;-91
2023/09/09 09:46:22;;;;;;;19.25;13.25;;;26.10;99.90;;;;;;5062066;28;20046;-90
2023/09/09 09:48:49;;;;;;;20.10;14.40;;;26.10;99.90;;;;;;5078303;28;20086;-89
2023/09/09 09:51:16;;;;;;;20.48;13.45;;;26.20;99.90;;;;;;5095014;28;20039;-89
2023/09/09 09:53:49;;;;;;;20.42;13.48;;;26.30;99.90;;;;;;5108923;28;20104;-90
2023/09/09 09:56:19;;;;;;;19.35;14.25;;;26.40;99.90;;;;;;5114884;28;20042;-89
2023/09/09 09:58:48;;;;;;;19.48;13.63;;;26.40;99.90;;;;;;5110943;28;20055;-90
2023/09/09 10:01:15;;;;;;;17.88;13.63;;;26.50;99.90;;;;;;5094897;28;20048;-90
2023/09/09 10:03:44;;;;;;;14.70;12.15;;;26.60;99.90;;;;;;5077420;28;20042;-90
2023/09/09 10:06:13;;;;;;;18.80;10.82;;;26.60;99.90;;;;;;5108548;28;20044;-91
2023/09/09 10:08:53;;;;;;;16.90;11.13;;;26.70;99.90;;;;;;5113956;28;20040;-91
2023/09/09 10:11:22;;;;;;;13.95;10.70;;;26.90;99.90;;;;;;5115283;28;20043;-90
2023/09/09 10:14:05;;;;;;;15.93;10.82;;;27.00;99.90;;;;;;5115781;28;20096;-88
2023/09/09 10:16:33;;;;;;;14.10;10.23;;;27.00;99.90;;;;;;5109610;28;20032;-90
2023/09/09 10:19:02;;;;;;;18.65;12.13;;;27.10;99.90;;;;;;5090433;28;20032;-91
2023/09/09 10:21:31;;;;;;;15.50;12.27;;;27.00;99.90;;;;;;5083960;28;20056;-92
2023/09/09 10:24:00;;;;;;;14.15;10.23;;;27.10;99.90;;;;;;5091264;28;20044;-91
2023/09/09 10:26:27;;;;;;;13.88;10.80;;;27.10;99.90;;;;;;5098120;28;20043;-92
2023/09/09 10:28:55;;;;;;;12.55;9.18;;;27.20;99.90;;;;;;5097509;28;20040;-90
2023/09/09 10:31:23;;;;;;;11.68;9.60;;;27.30;99.90;;;;;;5097935;28;20031;-91
2023/09/09 10:33:50;;;;;;;12.43;8.15;;;27.40;99.90;;;;;;5080473;28;20122;-91
2023/09/09 10:36:18;;;;;;;13.43;9.43;;;27.50;99.90;;;;;;5125851;28;20111;-92
2023/09/09 10:38:45;;;;;;;10.90;8.55;;;27.50;99.90;;;;;;5092092;28;20032;-90
2023/09/09 10:41:12;;;;;;;15.93;8.85;;;27.50;99.90;;;;;;5083919;28;20034;-90
2023/09/09 10:43:39;;;;;;;14.95;9.13;;;27.60;99.90;;;;;;5077767;28;20093;-91
2023/09/09 10:46:08;;;;;;;13.90;9.45;;;27.70;99.90;;;;;;5090019;28;20483;-91
2023/09/09 10:48:35;;;;;;;11.57;7.50;;;27.80;99.90;;;;;;5113929;28;20122;-91
2023/09/09 10:51:06;;;;;;;12.00;8.20;;;27.90;99.90;;;;;;5098230;28;20131;-93
2023/09/09 10:53:33;;;;;;;11.98;7.60;;;27.90;99.90;;;;;;5097701;28;20456;-93
2023/09/09 10:56:17;;;;;;;13.00;7.45;;;28.00;99.90;;;;;;5114160;28;20511;-93
2023/09/09 10:58:44;;;;;;;13.32;7.53;;;28.00;99.90;;;;;;5097578;28;20044;-93
2023/09/09 11:01:25;;;;;;;12.52;6.85;;;28.00;99.90;;;;;;5114230;28;20047;-93
2023/09/09 11:03:52;;;;;;;9.18;7.47;;;28.10;99.90;;;;;;5113974;28;20391;-94
2023/09/09 11:06:31;;;;;;;10.25;6.82;;;28.20;99.90;;;;;;5114106;28;20072;-92
2023/09/09 11:09:00;;;;;;;10.68;7.57;;;28.20;99.90;;;;;;5113719;28;20040;-93
2023/09/09 11:11:31;;;;;;;10.43;6.70;;;28.20;99.90;;;;;;5097378;28;20047;-94
2023/09/09 11:13:58;;;;;;;8.25;6.57;;;28.20;99.90;;;;;;5097794;28;20039;-94
2023/09/09 11:16:35;;;;;;;12.00;7.35;;;28.30;99.90;;;;;;5115140;28;20399;-94
2023/09/09 11:19:08;;;;;;;10.30;6.80;;;28.30;99.90;;;;;;5118203;28;20449;-93
2023/09/09 11:21:46;;;;;;;12.88;6.55;;;28.30;99.90;;;;;;5117926;28;20043;-93
2023/09/09 11:24:13;;;;;;;9.63;7.30;;;28.40;99.90;;;;;;5118655;28;20093;-94
2023/09/09 11:26:50;;;;;;;10.82;6.57;;;28.30;99.90;;;;;;5101229;28;20043;-90
2023/09/09 11:29:18;;;;;;;9.40;7.43;;;28.30;99.90;;;;;;5101039;28;20077;-94
2023/09/09 11:31:45;;;;;;;8.68;6.80;;;28.20;99.90;;;;;;5101324;28;20512;-95
2023/09/09 11:34:13;;;;;;;9.25;7.20;;;28.20;99.90;;;;;;5101508;28;20095;-95
2023/09/09 11:36:40;;;;;;;9.55;7.00;;;28.10;99.90;;;;;;5101294;28;20036;-95
2023/09/09 11:39:07;;;;;;;9.10;6.93;;;28.20;99.90;;;;;;5100885;28;20514;-93
2023/09/09 11:41:37;;;;;;;12.02;6.93;;;28.20;99.90;;;;;;5117922;28;20049;-93
2023/09/09 11:44:07;;;;;;;9.43;6.60;;;28.30;99.90;;;;;;5117876;28;20694;-95
2023/09/09 11:46:48;;;;;;;13.88;6.50;;;28.30;99.90;;;;;;5100807;28;20620;-95
2023/09/09 11:49:16;;;;;;;13.13;6.75;;;28.30;99.90;;;;;;5100939;28;20466;-95
2023/09/09 11:51:44;;;;;;;9.02;6.88;;;28.30;99.90;;;;;;5117594;28;20047;-94
2023/09/09 11:54:18;;;;;;;10.70;6.63;;;28.40;99.90;;;;;;5117416;28;20123;-93
2023/09/09 11:56:45;;;;;;;11.07;6.18;;;28.40;99.90;;;;;;5117098;28;20039;-89
2023/09/09 11:59:11;;;;;;;14.13;6.50;;;28.60;99.90;;;;;;5073672;28;20368;-94
2023/09/09 12:01:43;;;;;;;11.68;6.43;;;28.60;99.90;;;;;;5111945;28;20051;-95
2023/09/09 12:04:11;;;;;;;12.10;6.78;;;28.60;99.90;;;;;;5117017;28;20118;-94
2023/09/09 12:06:40;;;;;;;11.70;6.93;;;28.70;99.90;;;;;;5117001;28;20040;-95
2023/09/09 12:09:08;;;;;;;13.85;7.80;;;28.80;99.90;;;;;;5133732;28;20042;-96
2023/09/09 12:11:35;;;;;;;11.40;7.60;;;28.80;99.90;;;;;;5101175;28;20043;-94
2023/09/09 12:14:02;;;;;;;12.43;7.72;;;28.80;99.90;;;;;;5100658;28;20035;-94
2023/09/09 12:16:31;;;;;;;11.48;7.30;;;28.60;99.90;;;;;;5117285;28;20438;-95
2023/09/09 12:18:57;;;;;;;11.70;7.97;;;28.50;99.90;;;;;;5100503;28;20035;-94
2023/09/09 12:21:24;;;;;;;11.18;7.15;;;28.40;99.90;;;;;;5074145;28;20082;-95
2023/09/09 12:23:58;;;;;;;11.52;6.80;;;28.50;99.90;;;;;;5099890;28;20044;-92
2023/09/09 12:26:25;;;;;;;11.23;7.20;;;28.60;99.90;;;;;;5117232;28;20096;-94
2023/09/09 12:29:10;;;;;;;12.32;7.55;;;28.70;99.90;;;;;;5080755;28;20040;-95
2023/09/09 12:31:54;;;;;;;12.38;8.63;;;28.60;99.90;;;;;;5108278;28;20552;-94